Time,TemperatureF,DewpointF,PressureIn,WindDirection,WindDirectionDegrees,WindSpeedMPH,WindSpeedGustMPH,Humidity,HourlyPrecipIn,Conditions,Clouds,dailyrainin,SoftwareType,DateUTC
2013-12-11 00:05:00,16.8,11.0,29.91,WSW,242,0.0,1.0,79,0.00,,,0.00,weatherlink.com 1.10,2013-12-11 05:05:00,
2013-12-11 00:20:00,16.8,12.0,29.91,ESE,118,0.0,1.0,81,0.00,,,0.00,weatherlink.com 1.10,2013-12-11 05:20:00,
2013-12-11 00:35:00,16.8,12.0,29.92,NE,44,0.0,2.0,80,0.00,,,0.00,weatherlink.com 1.10,2013-12-11 05:35:00,
2013-12-11 00:50:00,16.6,11.0,29.93,SSW,208,0.0,1.0,80,0.00,,,0.00,weatherlink.com 1.10,2013-12-11 05:50:00,
2013-12-11 01:05:00,16.3,12.0,29.93,SW,234,0.0,1.0,82,0.00,,,0.00,weatherlink.com 1.10,2013-12-11 06:05:00,
2013-12-11 01:20:00,16.2,12.0,29.95,SW,234,0.0,0.0,82,0.00,,,0.00,weatherlink.com 1.10,2013-12-11 06:20:00,
2013-12-11 01:35:00,15.7,11.0,29.95,SW,229,0.0,0.0,83,0.00,,,0.00,weatherlink.com 1.10,2013-12-11 06:35:00,
2013-12-11 01:51:00,14.9,11.0,29.96,SW,230,0.0,0.0,85,0.00,,,0.00,weatherlink.com 1.10,2013-12-11 06:51:00,
2013-12-11 02:05:00,14.1,11.0,29.98,SW,230,0.0,0.0,86,0.00,,,0.00,weatherlink.com 1.10,2013-12-11 07:05:00,
2013-12-11 02:20:00,13.6,11.0,29.99,SW,230,0.0,0.0,87,0.00,,,0.00,weatherlink.com 1.10,2013-12-11 07:20:00,
2013-12-11 02:35:00,13.0,10.0,29.99,SW,230,0.0,0.0,88,0.00,,,0.00,weatherlink.com 1.10,2013-12-11 07:35:00,
2013-12-11 02:50:00,13.0,10.0,29.99,North,-999,-999.0,-999.0,88,0.00,,,0.00,weatherlink.com 1.10,2013-12-11 07:50:00,
2013-12-11 03:05:00,13.0,10.0,29.99,North,-999,-999.0,-999.0,88,0.00,,,0.00,weatherlink.com 1.10,2013-12-11 08:05:00,
2013-12-11 03:20:00,13.0,10.0,29.99,North,-999,-999.0,-999.0,88,0.00,,,0.00,weatherlink.com 1.10,2013-12-11 08:20:00,
2013-12-11 03:35:00,13.0,10.0,29.99,North,-999,-999.0,-999.0,88,0.00,,,0.00,weatherlink.com 1.10,2013-12-11 08:35:00,
2013-12-11 03:50:00,13.0,10.0,29.99,North,-999,-999.0,-999.0,88,0.00,,,0.00,weatherlink.com 1.10,2013-12-11 08:50:00,
2013-12-11 04:05:00,13.0,10.0,30.00,North,-999,-999.0,-999.0,88,0.00,,,0.00,weatherlink.com 1.10,2013-12-11 09:05:00,
2013-12-11 04:21:00,13.0,10.0,30.01,North,-999,-999.0,-999.0,88,0.00,,,0.00,weatherlink.com 1.10,2013-12-11 09:21:00,
2013-12-11 04:36:00,13.0,10.0,30.02,North,-999,-999.0,-999.0,88,0.00,,,0.00,weatherlink.com 1.10,2013-12-11 09:36:00,
2013-12-11 04:51:00,13.0,10.0,30.02,North,-999,-999.0,-999.0,88,0.00,,,0.00,weatherlink.com 1.10,2013-12-11 09:51:00,
2013-12-11 05:06:00,13.0,10.0,30.01,North,-999,-999.0,-999.0,88,0.00,,,0.00,weatherlink.com 1.10,2013-12-11 10:06:00,
2013-12-11 05:21:00,13.0,10.0,30.02,North,-999,-999.0,-999.0,88,0.00,,,0.00,weatherlink.com 1.10,2013-12-11 10:21:00,
2013-12-11 05:36:00,13.0,10.0,30.03,North,-999,-999.0,-999.0,88,0.00,,,0.00,weatherlink.com 1.10,2013-12-11 10:36:00,
2013-12-11 05:51:00,13.0,10.0,30.04,North,-999,-999.0,-999.0,88,0.00,,,0.00,weatherlink.com 1.10,2013-12-11 10:51:00,
2013-12-11 06:06:00,13.0,10.0,30.04,North,-999,-999.0,-999.0,88,0.00,,,0.00,weatherlink.com 1.10,2013-12-11 11:06:00,
2013-12-11 06:21:00,13.0,10.0,30.05,North,-999,-999.0,-999.0,88,0.00,,,0.00,weatherlink.com 1.10,2013-12-11 11:21:00,
2013-12-11 06:36:00,13.0,10.0,30.06,North,-999,-999.0,-999.0,88,0.00,,,0.00,weatherlink.com 1.10,2013-12-11 11:36:00,
2013-12-11 06:51:00,13.0,10.0,30.06,North,-999,-999.0,-999.0,88,0.00,,,0.00,weatherlink.com 1.10,2013-12-11 11:51:00,
2013-12-11 07:06:00,13.0,10.0,30.07,North,-999,-999.0,-999.0,88,0.00,,,0.00,weatherlink.com 1.10,2013-12-11 12:06:00,
2013-12-11 07:21:00,13.0,10.0,30.07,North,-999,-999.0,-999.0,88,0.00,,,0.00,weatherlink.com 1.10,2013-12-11 12:21:00,
2013-12-11 07:37:00,13.0,10.0,30.08,North,-999,-999.0,-999.0,88,0.00,,,0.00,weatherlink.com 1.10,2013-12-11 12:37:00,
2013-12-11 07:52:00,14.4,11.0,30.08,South,181,0.0,1.0,86,0.00,,,0.00,weatherlink.com 1.10,2013-12-11 12:52:00,
2013-12-11 08:07:00,14.6,12.0,30.08,NNE,22,0.0,2.0,88,0.00,,,0.00,weatherlink.com 1.10,2013-12-11 13:07:00,
2013-12-11 08:22:00,15.2,13.0,30.09,SSW,197,0.0,2.0,89,0.00,,,0.00,weatherlink.com 1.10,2013-12-11 13:22:00,
2013-12-11 08:37:00,16.3,13.0,30.10,SE,140,0.0,1.0,88,0.00,,,0.00,weatherlink.com 1.10,2013-12-11 13:37:00,
2013-12-11 08:52:00,17.4,14.0,30.11,ENE,67,0.0,2.0,85,0.00,,,0.00,weatherlink.com 1.10,2013-12-11 13:52:00,
2013-12-11 09:07:00,19.1,15.0,30.11,West,259,0.0,4.0,83,0.00,,,0.00,weatherlink.com 1.10,2013-12-11 14:07:00,
2013-12-11 09:22:00,19.5,14.0,30.11,WSW,249,0.0,2.0,80,0.00,,,0.00,weatherlink.com 1.10,2013-12-11 14:22:00,
2013-12-11 09:37:00,20.4,15.0,30.11,NW,308,0.0,5.0,78,0.00,,,0.00,weatherlink.com 1.10,2013-12-11 14:37:00,
2013-12-11 09:52:00,19.9,14.0,30.11,North,355,0.0,2.0,77,0.00,,,0.00,weatherlink.com 1.10,2013-12-11 14:52:00,
2013-12-11 10:07:00,19.9,14.0,30.11,SE,139,0.0,7.0,79,0.00,,,0.00,weatherlink.com 1.10,2013-12-11 15:07:00,
2013-12-11 10:22:00,20.2,15.0,30.11,West,264,0.0,1.0,79,0.00,,,0.00,weatherlink.com 1.10,2013-12-11 15:22:00,
2013-12-11 10:37:00,20.1,15.0,30.11,SW,222,2.0,4.0,80,0.00,,,0.00,weatherlink.com 1.10,2013-12-11 15:37:00,
2013-12-11 10:52:00,20.1,15.0,30.10,NW,306,0.0,3.0,80,0.00,,,0.00,weatherlink.com 1.10,2013-12-11 15:52:00,
2013-12-11 11:07:00,19.8,15.0,30.09,West,260,1.0,7.0,81,0.00,,,0.00,weatherlink.com 1.10,2013-12-11 16:07:00,
2013-12-11 11:22:00,20.2,16.0,30.09,NNW,335,0.0,4.0,82,0.00,,,0.00,weatherlink.com 1.10,2013-12-11 16:22:00,
2013-12-11 11:37:00,20.4,16.0,30.08,SSE,149,0.0,7.0,82,0.00,,,0.00,weatherlink.com 1.10,2013-12-11 16:37:00,
2013-12-11 11:52:00,20.8,16.0,30.08,ENE,68,0.0,4.0,81,0.00,,,0.00,weatherlink.com 1.10,2013-12-11 16:52:00,
2013-12-11 12:07:00,21.2,16.0,30.07,WSW,237,0.0,2.0,80,0.00,,,0.00,weatherlink.com 1.10,2013-12-11 17:07:00,
2013-12-11 12:22:00,21.6,15.0,30.07,NNW,339,0.0,3.0,77,0.00,,,0.00,weatherlink.com 1.10,2013-12-11 17:22:00,
2013-12-11 12:37:00,22.0,16.0,30.06,NW,316,1.0,8.0,76,0.00,,,0.00,weatherlink.com 1.10,2013-12-11 17:37:00,
2013-12-11 12:52:00,21.6,16.0,30.07,NW,305,0.0,7.0,80,0.00,,,0.00,weatherlink.com 1.10,2013-12-11 17:52:00,
2013-12-11 13:07:00,21.2,16.0,30.06,West,271,0.0,3.0,81,0.00,,,0.00,weatherlink.com 1.10,2013-12-11 18:07:00,
2013-12-11 13:22:00,21.1,16.0,30.06,SE,128,7.0,7.0,82,0.00,,,0.00,weatherlink.com 1.10,2013-12-11 18:22:00,
2013-12-11 13:37:00,21.5,15.0,30.06,SE,133,0.0,5.0,76,0.00,,,0.00,weatherlink.com 1.10,2013-12-11 18:37:00,
2013-12-11 13:52:00,21.5,14.0,30.06,SW,233,0.0,2.0,74,0.00,,,0.00,weatherlink.com 1.10,2013-12-11 18:52:00,
2013-12-11 14:07:00,21.7,15.0,30.05,SE,139,0.0,1.0,75,0.00,,,0.00,weatherlink.com 1.10,2013-12-11 19:07:00,
2013-12-11 14:22:00,21.7,15.0,30.05,SW,225,0.0,5.0,75,0.00,,,0.00,weatherlink.com 1.10,2013-12-11 19:22:00,
2013-12-11 14:37:00,21.5,15.0,30.05,NNE,30,0.0,3.0,76,0.00,,,0.00,weatherlink.com 1.10,2013-12-11 19:37:00,
2013-12-11 14:52:00,21.1,15.0,30.05,WNW,292,0.0,2.0,78,0.00,,,0.00,weatherlink.com 1.10,2013-12-11 19:52:00,
2013-12-11 15:07:00,20.7,16.0,30.06,ESE,121,0.0,5.0,82,0.00,,,0.00,weatherlink.com 1.10,2013-12-11 20:07:00,
2013-12-11 15:22:00,20.2,17.0,30.06,ENE,72,0.0,1.0,88,0.00,,,0.00,weatherlink.com 1.10,2013-12-11 20:22:00,
2013-12-11 15:37:00,19.8,17.0,30.06,SE,144,0.0,1.0,90,0.00,,,0.00,weatherlink.com 1.10,2013-12-11 20:37:00,
2013-12-11 15:52:00,19.5,17.0,30.07,West,260,0.0,2.0,90,0.00,,,0.00,weatherlink.com 1.10,2013-12-11 20:52:00,
2013-12-11 16:07:00,19.4,17.0,30.07,SSE,167,0.0,1.0,90,0.00,,,0.00,weatherlink.com 1.10,2013-12-11 21:07:00,
2013-12-11 16:22:00,19.2,17.0,30.07,WSW,242,0.0,1.0,91,0.00,,,0.00,weatherlink.com 1.10,2013-12-11 21:22:00,
2013-12-11 16:37:00,19.1,17.0,30.07,SSW,210,0.0,0.0,91,0.00,,,0.00,weatherlink.com 1.10,2013-12-11 21:37:00,
2013-12-11 16:52:00,19.0,17.0,30.07,SSE,153,0.0,1.0,92,0.00,,,0.00,weatherlink.com 1.10,2013-12-11 21:52:00,
2013-12-11 17:07:00,19.0,17.0,30.07,SSW,200,0.0,0.0,92,0.00,,,0.00,weatherlink.com 1.10,2013-12-11 22:07:00,
2013-12-11 17:22:00,19.0,17.0,30.07,SW,229,0.0,1.0,93,0.00,,,0.00,weatherlink.com 1.10,2013-12-11 22:22:00,
2013-12-11 17:37:00,18.8,17.0,30.07,SSW,211,0.0,1.0,92,0.00,,,0.00,weatherlink.com 1.10,2013-12-11 22:37:00,
2013-12-11 17:52:00,18.5,17.0,30.07,SW,236,0.0,1.0,92,0.00,,,0.00,weatherlink.com 1.10,2013-12-11 22:52:00,
2013-12-11 18:07:00,18.3,16.0,30.08,SW,229,0.0,1.0,92,0.00,,,0.00,weatherlink.com 1.10,2013-12-11 23:07:00,
2013-12-11 18:22:00,18.1,16.0,30.08,SSW,213,1.0,1.0,92,0.00,,,0.00,weatherlink.com 1.10,2013-12-11 23:22:00,
2013-12-11 18:37:00,18.1,16.0,30.09,SE,145,0.0,1.0,93,0.00,,,0.00,weatherlink.com 1.10,2013-12-11 23:37:00,
2013-12-11 18:52:00,18.0,16.0,30.08,South,191,0.0,1.0,92,0.00,,,0.00,weatherlink.com 1.10,2013-12-11 23:52:00,
2013-12-11 19:07:00,17.8,16.0,30.09,SSW,203,0.0,2.0,92,0.00,,,0.00,weatherlink.com 1.10,2013-12-12 00:07:00,
2013-12-11 19:22:00,17.9,16.0,30.09,SE,142,0.0,0.0,93,0.00,,,0.00,weatherlink.com 1.10,2013-12-12 00:22:00,
2013-12-11 19:38:00,17.9,16.0,30.09,WNW,284,0.0,1.0,92,0.00,,,0.00,weatherlink.com 1.10,2013-12-12 00:38:00,
2013-12-11 19:53:00,17.5,16.0,30.10,WNW,290,0.0,1.0,92,0.00,,,0.00,weatherlink.com 1.10,2013-12-12 00:53:00,
2013-12-11 20:08:00,16.2,14.0,30.11,SE,138,0.0,1.0,90,0.00,,,0.00,weatherlink.com 1.10,2013-12-12 01:08:00,
2013-12-11 20:23:00,15.3,13.0,30.12,ESE,107,0.0,1.0,91,0.00,,,0.00,weatherlink.com 1.10,2013-12-12 01:23:00,
2013-12-11 20:38:00,14.3,12.0,30.12,West,263,0.0,1.0,90,0.00,,,0.00,weatherlink.com 1.10,2013-12-12 01:38:00,
2013-12-11 20:53:00,13.9,12.0,30.13,NNE,18,0.0,1.0,91,0.00,,,0.00,weatherlink.com 1.10,2013-12-12 01:53:00,
2013-12-11 21:08:00,13.6,11.0,30.13,West,276,0.0,1.0,89,0.00,,,0.00,weatherlink.com 1.10,2013-12-12 02:08:00,
2013-12-11 21:23:00,13.4,11.0,30.14,West,262,0.0,1.0,89,0.00,,,0.00,weatherlink.com 1.10,2013-12-12 02:23:00,
2013-12-11 21:38:00,13.3,11.0,30.14,West,261,0.0,0.0,90,0.00,,,0.00,weatherlink.com 1.10,2013-12-12 02:38:00,
2013-12-11 21:53:00,13.1,11.0,30.14,West,261,0.0,1.0,90,0.00,,,0.00,weatherlink.com 1.10,2013-12-12 02:53:00,
2013-12-11 22:08:00,12.9,10.0,30.15,West,261,0.0,0.0,89,0.00,,,0.00,weatherlink.com 1.10,2013-12-12 03:08:00,
2013-12-11 22:23:00,12.5,10.0,30.15,WSW,238,0.0,1.0,88,0.00,,,0.00,weatherlink.com 1.10,2013-12-12 03:23:00,
2013-12-11 22:38:00,12.1,9.0,30.15,SE,134,0.0,0.0,87,0.00,,,0.00,weatherlink.com 1.10,2013-12-12 03:38:00,
2013-12-11 22:53:00,11.6,8.0,30.15,WSW,240,0.0,0.0,85,0.00,,,0.00,weatherlink.com 1.10,2013-12-12 03:53:00,
2013-12-11 23:08:00,11.0,8.0,30.16,West,263,0.0,1.0,87,0.00,,,0.00,weatherlink.com 1.10,2013-12-12 04:08:00,
2013-12-11 23:23:00,10.4,7.0,30.16,NNW,331,0.0,1.0,87,0.00,,,0.00,weatherlink.com 1.10,2013-12-12 04:23:00,
2013-12-11 23:38:00,9.6,7.0,30.16,NNW,333,0.0,1.0,87,0.00,,,0.00,weatherlink.com 1.10,2013-12-12 04:38:00,
2013-12-11 23:53:00,8.9,6.0,30.15,NW,309,0.0,1.0,87,0.00,,,0.00,weatherlink.com 1.10,2013-12-12 04:53:00,